sensor_id;sensor_type;location;lat;lon;timestamp;pressure;altitude;pressure_sealevel;temperature;humidity
48364;BME280;34170;54.364;18.582;2022-07-12T00:02:20;100548.16;;;12.31;100.00
48364;BME280;34170;54.364;18.582;2022-07-12T00:04:48;100557.09;;;12.32;100.00
48364;BME280;34170;54.364;18.582;2022-07-12T00:07:15;100547.53;;;12.37;100.00
48364;BME280;34170;54.364;18.582;2022-07-12T00:09:43;100541.22;;;12.29;100.00
48364;BME280;34170;54.364;18.582;2022-07-12T00:12:11;100533.28;;;12.27;100.00
48364;BME280;34170;54.364;18.582;2022-07-12T00:14:38;100533.84;;;12.31;100.00
48364;BME280;34170;54.364;18.582;2022-07-12T00:17:05;100542.38;;;12.54;100.00
48364;BME280;34170;54.364;18.582;2022-07-12T00:19:33;100547.22;;;12.50;100.00
48364;BME280;34170;54.364;18.582;2022-07-12T00:22:00;100538.19;;;12.42;100.00
48364;BME280;34170;54.364;18.582;2022-07-12T00:24:27;100533.06;;;12.38;100.00
48364;BME280;34170;54.364;18.582;2022-07-12T00:26:54;100535.91;;;12.37;100.00
48364;BME280;34170;54.364;18.582;2022-07-12T00:29:22;100534.06;;;12.37;100.00
48364;BME280;34170;54.364;18.582;2022-07-12T00:31:49;100536.88;;;12.46;100.00
48364;BME280;34170;54.364;18.582;2022-07-12T00:34:16;100538.56;;;12.47;100.00
48364;BME280;34170;54.364;18.582;2022-07-12T00:36:44;100531.03;;;12.50;100.00
48364;BME280;34170;54.364;18.582;2022-07-12T00:39:11;100529.31;;;12.49;100.00
48364;BME280;34170;54.364;18.582;2022-07-12T00:41:39;100533.88;;;12.49;100.00
48364;BME280;34170;54.364;18.582;2022-07-12T00:44:06;100537.13;;;12.52;100.00
48364;BME280;34170;54.364;18.582;2022-07-12T00:46:33;100533.31;;;12.45;100.00
48364;BME280;34170;54.364;18.582;2022-07-12T00:49:01;100535.47;;;12.42;100.00
48364;BME280;34170;54.364;18.582;2022-07-12T00:51:28;100549.38;;;12.47;100.00
48364;BME280;34170;54.364;18.582;2022-07-12T00:53:57;100543.25;;;12.45;100.00
48364;BME280;34170;54.364;18.582;2022-07-12T00:56:26;100542.69;;;12.41;100.00
48364;BME280;34170;54.364;18.582;2022-07-12T00:58:53;100543.03;;;12.38;100.00
48364;BME280;34170;54.364;18.582;2022-07-12T01:01:20;100540.19;;;12.39;100.00
48364;BME280;34170;54.364;18.582;2022-07-12T01:03:50;100541.72;;;12.42;100.00
48364;BME280;34170;54.364;18.582;2022-07-12T01:06:20;100546.03;;;12.53;100.00
48364;BME280;34170;54.364;18.582;2022-07-12T01:08:48;100540.09;;;12.49;100.00
48364;BME280;34170;54.364;18.582;2022-07-12T01:11:15;100539.56;;;12.46;100.00
48364;BME280;34170;54.364;18.582;2022-07-12T01:13:44;100534.72;;;12.49;100.00
48364;BME280;34170;54.364;18.582;2022-07-12T01:16:12;100533.00;;;12.48;100.00
48364;BME280;34170;54.364;18.582;2022-07-12T01:18:42;100535.47;;;12.42;100.00
48364;BME280;34170;54.364;18.582;2022-07-12T01:21:18;100538.56;;;12.47;100.00
48364;BME280;34170;54.364;18.582;2022-07-12T01:23:49;100530.78;;;12.44;100.00
48364;BME280;34170;54.364;18.582;2022-07-12T01:26:18;100535.41;;;12.51;100.00
48364;BME280;34170;54.364;18.582;2022-07-12T01:28:46;100530.84;;;12.52;100.00
48364;BME280;34170;54.364;18.582;2022-07-12T01:31:14;100530.56;;;12.55;100.00
48364;BME280;34170;54.364;18.582;2022-07-12T01:33:42;100522.94;;;12.50;100.00
48364;BME280;34170;54.364;18.582;2022-07-12T01:36:09;100523.53;;;12.62;100.00
48364;BME280;34170;54.364;18.582;2022-07-12T01:38:37;100528.94;;;12.62;100.00
48364;BME280;34170;54.364;18.582;2022-07-12T01:41:04;100525.69;;;12.58;100.00
48364;BME280;34170;54.364;18.582;2022-07-12T01:43:32;100527.56;;;12.58;100.00
48364;BME280;34170;54.364;18.582;2022-07-12T01:45:59;100527.00;;;12.54;100.00
48364;BME280;34170;54.364;18.582;2022-07-12T01:48:26;100526.88;;;12.56;100.00
48364;BME280;34170;54.364;18.582;2022-07-12T01:50:53;100523.00;;;12.58;100.00
48364;BME280;34170;54.364;18.582;2022-07-12T01:53:21;100525.25;;;12.63;100.00
48364;BME280;34170;54.364;18.582;2022-07-12T01:55:49;100526.31;;;12.52;100.00
48364;BME280;34170;54.364;18.582;2022-07-12T01:58:17;100523.09;;;12.49;100.00
48364;BME280;34170;54.364;18.582;2022-07-12T02:00:45;100529.31;;;12.49;100.00
48364;BME280;34170;54.364;18.582;2022-07-12T02:03:18;100519.38;;;12.50;100.00
48364;BME280;34170;54.364;18.582;2022-07-12T02:05:46;100519.44;;;12.40;100.00
48364;BME280;34170;54.364;18.582;2022-07-12T02:08:13;100520.75;;;12.36;100.00
48364;BME280;34170;54.364;18.582;2022-07-12T02:10:42;100517.50;;;12.32;100.00
48364;BME280;34170;54.364;18.582;2022-07-12T02:13:10;100528.78;;;12.46;100.00
48364;BME280;34170;54.364;18.582;2022-07-12T02:15:37;100526.19;;;12.54;100.00
48364;BME280;34170;54.364;18.582;2022-07-12T02:18:04;100526.06;;;12.46;100.00
48364;BME280;34170;54.364;18.582;2022-07-12T02:20:32;100513.03;;;12.41;100.00
48364;BME280;34170;54.364;18.582;2022-07-12T02:22:59;100511.50;;;12.38;100.00
48364;BME280;34170;54.364;18.582;2022-07-12T02:25:27;100525.53;;;12.42;100.00
48364;BME280;34170;54.364;18.582;2022-07-12T02:27:54;100519.47;;;12.30;100.00
48364;BME280;34170;54.364;18.582;2022-07-12T02:30:21;100519.66;;;12.29;100.00
48364;BME280;34170;54.364;18.582;2022-07-12T02:32:49;100516.97;;;12.29;100.00
48364;BME280;34170;54.364;18.582;2022-07-12T02:35:17;100522.34;;;12.29;100.00
48364;BME280;34170;54.364;18.582;2022-07-12T02:37:44;100517.50;;;12.32;100.00
48364;BME280;34170;54.364;18.582;2022-07-12T02:40:11;100511.41;;;12.30;100.00
48364;BME280;34170;54.364;18.582;2022-07-12T02:42:58;100510.41;;;12.31;100.00
48364;BME280;34170;54.364;18.582;2022-07-12T02:45:25;100514.59;;;12.44;100.00
48364;BME280;34170;54.364;18.582;2022-07-12T02:47:52;100506.41;;;12.35;100.00
48364;BME280;34170;54.364;18.582;2022-07-12T02:50:20;100508.72;;;12.48;100.00
48364;BME280;34170;54.364;18.582;2022-07-12T02:52:47;100498.56;;;12.42;100.00
48364;BME280;34170;54.364;18.582;2022-07-12T02:55:15;100509.59;;;12.49;100.00
48364;BME280;34170;54.364;18.582;2022-07-12T02:57:42;100500.56;;;12.40;100.00
48364;BME280;34170;54.364;18.582;2022-07-12T03:00:10;100508.53;;;12.59;100.00
48364;BME280;34170;54.364;18.582;2022-07-12T03:02:38;100489.41;;;12.53;100.00
48364;BME280;34170;54.364;18.582;2022-07-12T03:05:06;100499.97;;;12.64;100.00
48364;BME280;34170;54.364;18.582;2022-07-12T03:07:34;100494.50;;;12.74;100.00
48364;BME280;34170;54.364;18.582;2022-07-12T03:10:01;100488.56;;;12.70;100.00
48364;BME280;34170;54.364;18.582;2022-07-12T03:12:28;100500.69;;;12.84;100.00
48364;BME280;34170;54.364;18.582;2022-07-12T03:14:56;100499.19;;;12.90;100.00
48364;BME280;34170;54.364;18.582;2022-07-12T03:17:23;100496.00;;;12.94;100.00
48364;BME280;34170;54.364;18.582;2022-07-12T03:19:51;100501.34;;;13.04;100.00
48364;BME280;34170;54.364;18.582;2022-07-12T03:22:19;100495.69;;;13.15;100.00
48364;BME280;34170;54.364;18.582;2022-07-12T03:24:46;100492.97;;;13.33;100.00
48364;BME280;34170;54.364;18.582;2022-07-12T03:27:13;100498.63;;;13.48;100.00
48364;BME280;34170;54.364;18.582;2022-07-12T03:29:40;100495.69;;;13.60;100.00
48364;BME280;34170;54.364;18.582;2022-07-12T03:32:08;100488.22;;;14.30;100.00
48364;BME280;34170;54.364;18.582;2022-07-12T03:34:36;100505.41;;;15.38;100.00
48364;BME280;34170;54.364;18.582;2022-07-12T03:37:04;100501.75;;;16.03;100.00
48364;BME280;34170;54.364;18.582;2022-07-12T03:39:31;100506.00;;;16.91;100.00
48364;BME280;34170;54.364;18.582;2022-07-12T03:42:01;100502.88;;;17.03;100.00
48364;BME280;34170;54.364;18.582;2022-07-12T03:44:29;100516.28;;;17.57;100.00
48364;BME280;34170;54.364;18.582;2022-07-12T03:46:57;100512.19;;;18.94;100.00
48364;BME280;34170;54.364;18.582;2022-07-12T03:49:25;100516.06;;;20.19;100.00
48364;BME280;34170;54.364;18.582;2022-07-12T03:51:53;100523.50;;;21.13;100.00
48364;BME280;34170;54.364;18.582;2022-07-12T03:54:20;100517.59;;;21.83;100.00
48364;BME280;34170;54.364;18.582;2022-07-12T03:56:48;100512.06;;;23.51;62.53
48364;BME280;34170;54.364;18.582;2022-07-12T03:59:34;100510.06;;;21.05;68.72
48364;BME280;34170;54.364;18.582;2022-07-12T04:02:08;100509.34;;;20.70;75.46
48364;BME280;34170;54.364;18.582;2022-07-12T04:04:35;100497.09;;;19.69;79.88
48364;BME280;34170;54.364;18.582;2022-07-12T04:07:03;100498.00;;;18.98;85.18
48364;BME280;34170;54.364;18.582;2022-07-12T04:09:31;100490.59;;;19.14;82.89
48364;BME280;34170;54.364;18.582;2022-07-12T04:11:58;100490.06;;;18.45;87.48
48364;BME280;34170;54.364;18.582;2022-07-12T04:14:25;100484.00;;;17.92;91.48
48364;BME280;34170;54.364;18.582;2022-07-12T04:16:54;100492.25;;;17.31;96.25
48364;BME280;34170;54.364;18.582;2022-07-12T04:19:22;100483.94;;;17.62;94.80
48364;BME280;34170;54.364;18.582;2022-07-12T04:21:52;100491.81;;;17.57;94.59
48364;BME280;34170;54.364;18.582;2022-07-12T04:24:19;100482.31;;;17.23;97.34
48364;BME280;34170;54.364;18.582;2022-07-12T04:26:46;100479.97;;;18.39;91.11
48364;BME280;34170;54.364;18.582;2022-07-12T04:29:15;100488.94;;;20.11;81.07
48364;BME280;34170;54.364;18.582;2022-07-12T04:31:42;100485.03;;;22.65;67.48
48364;BME280;34170;54.364;18.582;2022-07-12T04:34:10;100497.97;;;24.09;59.21
48364;BME280;34170;54.364;18.582;2022-07-12T04:36:37;100488.41;;;22.99;62.26
48364;BME280;34170;54.364;18.582;2022-07-12T04:39:04;100485.34;;;21.99;68.54
48364;BME280;34170;54.364;18.582;2022-07-12T04:41:33;100476.78;;;20.82;72.29
48364;BME280;34170;54.364;18.582;2022-07-12T04:44:05;100474.22;;;19.42;80.28
48364;BME280;34170;54.364;18.582;2022-07-12T04:46:33;100478.72;;;19.50;82.21
48364;BME280;34170;54.364;18.582;2022-07-12T04:49:01;100471.06;;;19.10;82.73
48364;BME280;34170;54.364;18.582;2022-07-12T04:51:28;100473.88;;;18.37;87.68
48364;BME280;34170;54.364;18.582;2022-07-12T04:53:56;100472.41;;;18.20;92.32
48364;BME280;34170;54.364;18.582;2022-07-12T04:56:23;100472.06;;;17.93;92.45
48364;BME280;34170;54.364;18.582;2022-07-12T04:58:50;100474.56;;;17.50;94.68
48364;BME280;34170;54.364;18.582;2022-07-12T05:01:26;100470.16;;;17.49;96.95
48364;BME280;34170;54.364;18.582;2022-07-12T05:03:53;100475.16;;;17.60;95.01
48364;BME280;34170;54.364;18.582;2022-07-12T05:06:21;100471.16;;;18.22;93.03
48364;BME280;34170;54.364;18.582;2022-07-12T05:08:50;100468.31;;;18.67;89.79
48364;BME280;34170;54.364;18.582;2022-07-12T05:11:18;100473.28;;;18.42;90.34
48364;BME280;34170;54.364;18.582;2022-07-12T05:13:45;100487.25;;;18.17;91.99
48364;BME280;34170;54.364;18.582;2022-07-12T05:16:13;100480.25;;;18.44;89.91
48364;BME280;34170;54.364;18.582;2022-07-12T05:18:40;100475.25;;;18.33;90.51
48364;BME280;34170;54.364;18.582;2022-07-12T05:21:07;100486.44;;;19.18;87.02
48364;BME280;34170;54.364;18.582;2022-07-12T05:23:35;100491.53;;;19.84;83.14
48364;BME280;34170;54.364;18.582;2022-07-12T05:26:02;100501.63;;;21.67;74.94
48364;BME280;34170;54.364;18.582;2022-07-12T05:28:29;100504.41;;;23.34;62.45
48364;BME280;34170;54.364;18.582;2022-07-12T05:30:56;100492.56;;;24.51;60.54
48364;BME280;34170;54.364;18.582;2022-07-12T05:33:24;100497.88;;;25.84;54.96
48364;BME280;34170;54.364;18.582;2022-07-12T05:35:52;100495.69;;;27.42;47.82
48364;BME280;34170;54.364;18.582;2022-07-12T05:38:19;100499.00;;;30.06;41.43
48364;BME280;34170;54.364;18.582;2022-07-12T05:40:47;100505.66;;;31.91;37.70
48364;BME280;34170;54.364;18.582;2022-07-12T05:43:14;100503.03;;;32.81;34.08
48364;BME280;34170;54.364;18.582;2022-07-12T05:45:43;100513.44;;;33.97;31.59
48364;BME280;34170;54.364;18.582;2022-07-12T05:48:10;100509.78;;;33.14;31.93
48364;BME280;34170;54.364;18.582;2022-07-12T05:50:37;100502.31;;;33.04;31.59
48364;BME280;34170;54.364;18.582;2022-07-12T05:53:05;100500.09;;;32.57;32.78
48364;BME280;34170;54.364;18.582;2022-07-12T05:55:51;100497.56;;;32.00;34.50
48364;BME280;34170;54.364;18.582;2022-07-12T05:58:21;100501.44;;;31.99;34.03
48364;BME280;34170;54.364;18.582;2022-07-12T06:00:48;100495.72;;;33.30;30.95
48364;BME280;34170;54.364;18.582;2022-07-12T06:03:16;100492.94;;;31.39;33.35
48364;BME280;34170;54.364;18.582;2022-07-12T06:05:44;100494.78;;;30.62;37.07
48364;BME280;34170;54.364;18.582;2022-07-12T06:08:11;100492.66;;;31.56;34.29
48364;BME280;34170;54.364;18.582;2022-07-12T06:10:38;100495.88;;;33.73;30.96
48364;BME280;34170;54.364;18.582;2022-07-12T06:13:06;100495.22;;;35.05;28.17
48364;BME280;34170;54.364;18.582;2022-07-12T06:15:35;100490.13;;;33.30;31.27
48364;BME280;34170;54.364;18.582;2022-07-12T06:18:03;100487.06;;;31.77;33.57
48364;BME280;34170;54.364;18.582;2022-07-12T06:20:31;100501.94;;;32.22;32.75
48364;BME280;34170;54.364;18.582;2022-07-12T06:22:58;100487.09;;;30.89;34.79
48364;BME280;34170;54.364;18.582;2022-07-12T06:25:26;100481.47;;;28.83;38.88
48364;BME280;34170;54.364;18.582;2022-07-12T06:28:11;100497.59;;;32.55;32.53
48364;BME280;34170;54.364;18.582;2022-07-12T06:30:39;100492.75;;;34.66;29.61
48364;BME280;34170;54.364;18.582;2022-07-12T06:33:06;100487.41;;;34.69;28.93
48364;BME280;34170;54.364;18.582;2022-07-12T06:35:33;100496.13;;;35.66;27.93
48364;BME280;34170;54.364;18.582;2022-07-12T06:38:02;100491.41;;;35.95;26.34
48364;BME280;34170;54.364;18.582;2022-07-12T06:40:29;100498.19;;;36.72;25.92
48364;BME280;34170;54.364;18.582;2022-07-12T06:42:57;100492.03;;;35.31;27.02
48364;BME280;34170;54.364;18.582;2022-07-12T06:45:24;100503.00;;;35.08;28.11
48364;BME280;34170;54.364;18.582;2022-07-12T06:47:52;100501.25;;;36.34;25.49
48364;BME280;34170;54.364;18.582;2022-07-12T06:50:20;100493.81;;;37.47;24.37
48364;BME280;34170;54.364;18.582;2022-07-12T06:52:47;100495.56;;;34.47;27.00
48364;BME280;34170;54.364;18.582;2022-07-12T06:55:15;100498.09;;;34.24;28.52
48364;BME280;34170;54.364;18.582;2022-07-12T06:57:43;100491.34;;;32.29;30.67
48364;BME280;34170;54.364;18.582;2022-07-12T07:00:10;100493.47;;;31.77;31.62
48364;BME280;34170;54.364;18.582;2022-07-12T07:02:38;100495.13;;;33.91;29.40
48364;BME280;34170;54.364;18.582;2022-07-12T07:05:07;100488.94;;;32.02;30.95
48364;BME280;34170;54.364;18.582;2022-07-12T07:07:35;100501.72;;;32.08;30.63
48364;BME280;34170;54.364;18.582;2022-07-12T07:10:03;100491.00;;;30.93;32.02
48364;BME280;34170;54.364;18.582;2022-07-12T07:12:30;100486.44;;;28.54;36.73
48364;BME280;34170;54.364;18.582;2022-07-12T07:14:58;100489.72;;;28.78;35.94
48364;BME280;34170;54.364;18.582;2022-07-12T07:17:25;100490.81;;;30.32;33.16
48364;BME280;34170;54.364;18.582;2022-07-12T07:19:53;100494.09;;;33.82;28.12
48364;BME280;34170;54.364;18.582;2022-07-12T07:22:21;100505.84;;;35.55;25.60
48364;BME280;34170;54.364;18.582;2022-07-12T07:24:48;100505.72;;;35.46;24.92
48364;BME280;34170;54.364;18.582;2022-07-12T07:27:15;100482.38;;;35.70;24.95
48364;BME280;34170;54.364;18.582;2022-07-12T07:29:43;100497.72;;;35.26;24.49
48364;BME280;34170;54.364;18.582;2022-07-12T07:32:30;100489.91;;;36.89;22.35
48364;BME280;34170;54.364;18.582;2022-07-12T07:34:58;100493.38;;;37.63;22.09
48364;BME280;34170;54.364;18.582;2022-07-12T07:37:27;100496.13;;;38.25;22.41
48364;BME280;34170;54.364;18.582;2022-07-12T07:39:54;100497.94;;;36.32;23.85
48364;BME280;34170;54.364;18.582;2022-07-12T07:42:21;100490.25;;;34.02;27.20
48364;BME280;34170;54.364;18.582;2022-07-12T07:44:49;100487.56;;;31.94;30.17
48364;BME280;34170;54.364;18.582;2022-07-12T07:47:47;100488.16;;;30.78;31.05
48364;BME280;34170;54.364;18.582;2022-07-12T07:50:35;100479.81;;;29.46;32.59
48364;BME280;34170;54.364;18.582;2022-07-12T07:53:03;100491.97;;;30.36;31.59
48364;BME280;34170;54.364;18.582;2022-07-12T07:55:31;100486.28;;;30.94;30.83
48364;BME280;34170;54.364;18.582;2022-07-12T07:57:59;100487.84;;;28.83;32.62
48364;BME280;34170;54.364;18.582;2022-07-12T08:00:28;100480.44;;;27.56;34.45
48364;BME280;34170;54.364;18.582;2022-07-12T08:02:56;100486.88;;;27.62;36.29
48364;BME280;34170;54.364;18.582;2022-07-12T08:05:23;100479.84;;;26.17;37.42
48364;BME280;34170;54.364;18.582;2022-07-12T08:07:56;100490.34;;;25.56;39.25
48364;BME280;34170;54.364;18.582;2022-07-12T08:10:29;100487.94;;;25.95;38.00
48364;BME280;34170;54.364;18.582;2022-07-12T08:12:57;100478.06;;;26.80;36.13
48364;BME280;34170;54.364;18.582;2022-07-12T08:15:24;100473.53;;;27.76;36.58
48364;BME280;34170;54.364;18.582;2022-07-12T08:17:52;100471.50;;;27.88;36.27
48364;BME280;34170;54.364;18.582;2022-07-12T08:20:22;100466.91;;;28.43;34.32
48364;BME280;34170;54.364;18.582;2022-07-12T08:23:10;100481.56;;;28.93;34.37
48364;BME280;34170;54.364;18.582;2022-07-12T08:25:37;100479.66;;;29.26;33.25
48364;BME280;34170;54.364;18.582;2022-07-12T08:28:05;100474.66;;;29.23;33.02
48364;BME280;34170;54.364;18.582;2022-07-12T08:30:32;100477.59;;;31.83;29.96
48364;BME280;34170;54.364;18.582;2022-07-12T08:32:59;100488.25;;;31.50;29.21
48364;BME280;34170;54.364;18.582;2022-07-12T08:35:27;100475.09;;;30.58;30.63
48364;BME280;34170;54.364;18.582;2022-07-12T08:37:55;100486.94;;;29.75;32.33
48364;BME280;34170;54.364;18.582;2022-07-12T08:40:23;100483.00;;;29.65;32.53
48364;BME280;34170;54.364;18.582;2022-07-12T08:42:50;100483.16;;;28.84;33.06
48364;BME280;34170;54.364;18.582;2022-07-12T08:45:18;100486.81;;;29.22;32.48
48364;BME280;34170;54.364;18.582;2022-07-12T08:47:45;100479.38;;;29.27;31.56
48364;BME280;34170;54.364;18.582;2022-07-12T08:50:17;100467.34;;;29.49;32.30
48364;BME280;34170;54.364;18.582;2022-07-12T08:52:46;100470.00;;;29.71;32.70
48364;BME280;34170;54.364;18.582;2022-07-12T08:57:51;100451.53;;;28.52;33.31
48364;BME280;34170;54.364;18.582;2022-07-12T09:00:21;100457.69;;;27.32;35.10
48364;BME280;34170;54.364;18.582;2022-07-12T09:02:53;100470.94;;;28.80;33.02
48364;BME280;34170;54.364;18.582;2022-07-12T09:05:23;100468.44;;;30.74;30.25
48364;BME280;34170;54.364;18.582;2022-07-12T09:07:51;100460.88;;;31.98;29.34
48364;BME280;34170;54.364;18.582;2022-07-12T09:10:28;100466.78;;;32.46;26.53
48364;BME280;34170;54.364;18.582;2022-07-12T09:12:55;100470.09;;;32.48;26.95
48364;BME280;34170;54.364;18.582;2022-07-12T09:15:24;100466.31;;;32.29;27.07
48364;BME280;34170;54.364;18.582;2022-07-12T09:18:03;100459.13;;;32.18;28.14
48364;BME280;34170;54.364;18.582;2022-07-12T09:20:34;100466.41;;;32.98;26.38
48364;BME280;34170;54.364;18.582;2022-07-12T09:23:07;100455.63;;;32.46;27.44
48364;BME280;34170;54.364;18.582;2022-07-12T09:25:37;100445.94;;;31.63;27.80
48364;BME280;34170;54.364;18.582;2022-07-12T09:28:07;100461.84;;;31.11;28.02
48364;BME280;34170;54.364;18.582;2022-07-12T09:30:35;100453.22;;;31.28;28.62
48364;BME280;34170;54.364;18.582;2022-07-12T09:33:06;100460.47;;;31.09;28.61
48364;BME280;34170;54.364;18.582;2022-07-12T09:38:37;100451.53;;;28.75;31.59
48364;BME280;34170;54.364;18.582;2022-07-12T09:41:06;100453.03;;;29.62;31.07
48364;BME280;34170;54.364;18.582;2022-07-12T09:43:34;100446.69;;;28.38;31.00
48364;BME280;34170;54.364;18.582;2022-07-12T09:46:02;100443.81;;;29.14;30.95
48364;BME280;34170;54.364;18.582;2022-07-12T09:48:30;100442.63;;;30.53;28.60
48364;BME280;34170;54.364;18.582;2022-07-12T09:50:58;100442.66;;;30.58;28.67
48364;BME280;34170;54.364;18.582;2022-07-12T09:53:30;100441.50;;;30.39;29.24
48364;BME280;34170;54.364;18.582;2022-07-12T09:56:03;100439.56;;;29.76;30.00
48364;BME280;34170;54.364;18.582;2022-07-12T09:58:52;100441.09;;;30.15;28.76
48364;BME280;34170;54.364;18.582;2022-07-12T10:01:20;100432.88;;;30.40;28.55
48364;BME280;34170;54.364;18.582;2022-07-12T10:03:49;100427.66;;;30.75;28.61
48364;BME280;34170;54.364;18.582;2022-07-12T10:06:35;100445.44;;;31.30;28.99
48364;BME280;34170;54.364;18.582;2022-07-12T10:09:04;100447.97;;;31.11;28.84
48364;BME280;34170;54.364;18.582;2022-07-12T10:11:33;100412.84;;;29.55;29.63
48364;BME280;34170;54.364;18.582;2022-07-12T10:14:21;100457.50;;;30.21;30.10
48364;BME280;34170;54.364;18.582;2022-07-12T10:16:52;100442.66;;;31.35;27.85
48364;BME280;34170;54.364;18.582;2022-07-12T10:19:28;100436.00;;;29.43;31.39
48364;BME280;34170;54.364;18.582;2022-07-12T10:21:59;100433.13;;;28.90;32.53
48364;BME280;34170;54.364;18.582;2022-07-12T10:24:45;100443.00;;;29.51;30.21
48364;BME280;34170;54.364;18.582;2022-07-12T10:29:50;100442.06;;;29.40;30.25
48364;BME280;34170;54.364;18.582;2022-07-12T10:32:33;100443.84;;;28.32;32.27
48364;BME280;34170;54.364;18.582;2022-07-12T10:35:06;100443.31;;;27.47;33.62
48364;BME280;34170;54.364;18.582;2022-07-12T10:37:34;100439.94;;;26.94;35.83
48364;BME280;34170;54.364;18.582;2022-07-12T10:42:39;100426.81;;;28.19;33.73
48364;BME280;34170;54.364;18.582;2022-07-12T10:45:14;100430.50;;;28.24;32.98
48364;BME280;34170;54.364;18.582;2022-07-12T10:48:03;100418.50;;;28.41;32.10
48364;BME280;34170;54.364;18.582;2022-07-12T11:01:24;100423.28;;;29.05;31.59
48364;BME280;34170;54.364;18.582;2022-07-12T11:03:56;100432.13;;;27.98;31.47
48364;BME280;34170;54.364;18.582;2022-07-12T11:06:25;100428.19;;;26.99;33.08
48364;BME280;34170;54.364;18.582;2022-07-12T11:09:01;100427.41;;;26.87;32.92
48364;BME280;34170;54.364;18.582;2022-07-12T11:11:34;100415.78;;;27.01;32.22
48364;BME280;34170;54.364;18.582;2022-07-12T11:14:02;100424.25;;;27.12;34.37
48364;BME280;34170;54.364;18.582;2022-07-12T11:16:30;100409.69;;;26.54;34.09
48364;BME280;34170;54.364;18.582;2022-07-12T11:18:58;100428.16;;;26.36;34.07
48364;BME280;34170;54.364;18.582;2022-07-12T11:21:25;100411.56;;;25.08;36.12
48364;BME280;34170;54.364;18.582;2022-07-12T11:23:53;100414.84;;;24.74;38.61
48364;BME280;34170;54.364;18.582;2022-07-12T11:26:21;100408.84;;;24.24;40.41
48364;BME280;34170;54.364;18.582;2022-07-12T11:28:49;100419.00;;;23.49;41.94
48364;BME280;34170;54.364;18.582;2022-07-12T11:31:18;100414.94;;;23.33;38.70
48364;BME280;34170;54.364;18.582;2022-07-12T11:33:47;100401.25;;;23.01;39.87
48364;BME280;34170;54.364;18.582;2022-07-12T11:36:15;100420.47;;;23.01;43.04
48364;BME280;34170;54.364;18.582;2022-07-12T11:38:44;100413.75;;;22.97;39.77
48364;BME280;34170;54.364;18.582;2022-07-12T11:41:14;100413.09;;;22.77;41.06
48364;BME280;34170;54.364;18.582;2022-07-12T11:43:42;100412.53;;;22.93;41.07
48364;BME280;34170;54.364;18.582;2022-07-12T11:46:10;100413.50;;;22.49;39.73
48364;BME280;34170;54.364;18.582;2022-07-12T11:48:38;100408.94;;;22.36;42.06
48364;BME280;34170;54.364;18.582;2022-07-12T11:51:11;100407.72;;;22.57;43.06
48364;BME280;34170;54.364;18.582;2022-07-12T11:53:42;100409.50;;;22.44;41.83
48364;BME280;34170;54.364;18.582;2022-07-12T11:56:09;100403.19;;;22.76;43.50
48364;BME280;34170;54.364;18.582;2022-07-12T11:58:38;100393.72;;;22.72;41.54
48364;BME280;34170;54.364;18.582;2022-07-12T12:01:15;100385.72;;;22.70;40.95
48364;BME280;34170;54.364;18.582;2022-07-12T12:03:46;100385.59;;;22.58;41.31
48364;BME280;34170;54.364;18.582;2022-07-12T12:06:14;100380.69;;;22.67;43.46
48364;BME280;34170;54.364;18.582;2022-07-12T12:08:42;100394.22;;;22.62;41.33
48364;BME280;34170;54.364;18.582;2022-07-12T12:11:09;100395.59;;;22.71;43.13
48364;BME280;34170;54.364;18.582;2022-07-12T12:13:37;100388.03;;;22.73;43.69
48364;BME280;34170;54.364;18.582;2022-07-12T12:16:04;100401.47;;;22.50;43.38
48364;BME280;34170;54.364;18.582;2022-07-12T12:18:37;100379.84;;;22.35;41.17
48364;BME280;34170;54.364;18.582;2022-07-12T12:21:08;100393.63;;;22.21;43.04
48364;BME280;34170;54.364;18.582;2022-07-12T12:23:38;100405.56;;;22.34;42.85
48364;BME280;34170;54.364;18.582;2022-07-12T12:26:13;100393.13;;;22.38;44.59
48364;BME280;34170;54.364;18.582;2022-07-12T12:31:18;100382.16;;;22.70;43.39
48364;BME280;34170;54.364;18.582;2022-07-12T12:33:51;100393.03;;;22.51;42.82
48364;BME280;34170;54.364;18.582;2022-07-12T12:36:24;100383.75;;;22.52;43.38
48364;BME280;34170;54.364;18.582;2022-07-12T12:38:58;100403.34;;;22.56;42.92
48364;BME280;34170;54.364;18.582;2022-07-12T12:41:28;100389.28;;;22.45;45.56
48364;BME280;34170;54.364;18.582;2022-07-12T12:44:00;100395.41;;;22.41;42.67
48364;BME280;34170;54.364;18.582;2022-07-12T12:46:44;100396.66;;;22.45;42.86
48364;BME280;34170;54.364;18.582;2022-07-12T12:49:13;100376.94;;;22.61;44.66
48364;BME280;34170;54.364;18.582;2022-07-12T12:51:57;100379.09;;;22.53;43.00
48364;BME280;34170;54.364;18.582;2022-07-12T12:54:35;100392.31;;;22.62;42.27
48364;BME280;34170;54.364;18.582;2022-07-12T12:57:07;100407.13;;;22.80;42.37
48364;BME280;34170;54.364;18.582;2022-07-12T12:59:36;100392.56;;;22.86;42.28
48364;BME280;34170;54.364;18.582;2022-07-12T13:02:05;100382.69;;;22.78;43.69
48364;BME280;34170;54.364;18.582;2022-07-12T13:04:34;100390.84;;;22.60;42.66
48364;BME280;34170;54.364;18.582;2022-07-12T13:07:02;100384.38;;;22.54;42.99
48364;BME280;34170;54.364;18.582;2022-07-12T13:09:36;100382.47;;;22.55;43.31
48364;BME280;34170;54.364;18.582;2022-07-12T13:12:04;100386.13;;;22.42;41.79
48364;BME280;34170;54.364;18.582;2022-07-12T13:14:32;100387.97;;;22.16;44.23